createdAt,value
2022-11-29T00:09:36.305Z,112.23
2022-11-29T00:19:41.331Z,110.87
2022-11-29T00:29:44.914Z,110.93
2022-11-29T00:39:49.772Z,109.57
2022-11-29T00:49:53.185Z,109.07
2022-11-29T00:59:57.980Z,106.57
2022-11-29T01:10:01.406Z,111.17
2022-11-29T01:20:09.385Z,106.87
2022-11-29T01:30:13.565Z,104.47
2022-11-29T01:40:18.694Z,105.33
2022-11-29T01:50:22.457Z,104.63
2022-11-29T02:00:27.446Z,108.70
2022-11-29T02:10:48.228Z,112.47
2022-11-29T02:21:19.886Z,107.67
2022-11-29T02:32:03.250Z,112.47
2022-11-29T02:42:55.747Z,106.87
2022-11-29T02:53:09.683Z,112.03
2022-11-29T03:03:22.726Z,117.67
2022-11-29T03:13:42.028Z,119.80
2022-11-29T03:23:51.192Z,113.63
2022-11-29T03:34:05.122Z,112.57
2022-11-29T03:44:14.816Z,112.80
2022-11-29T03:54:24.200Z,112.20
2022-11-29T04:05:18.102Z,106.03
2022-11-29T04:16:09.198Z,106.80
2022-11-29T04:26:53.441Z,105.17
2022-11-29T04:37:30.005Z,98.07
2022-11-29T04:47:53.784Z,98.60
2022-11-29T04:58:04.948Z,96.97
2022-11-29T05:08:28.819Z,99.07
2022-11-29T05:18:59.665Z,101.33
2022-11-29T05:29:07.728Z,100.43
2022-11-29T05:39:32.464Z,98.13
2022-11-29T05:49:47.149Z,100.63
2022-11-29T05:59:52.687Z,97.67
2022-11-29T06:10:04.856Z,99.70
2022-11-29T06:20:28.626Z,101.80
2022-11-29T06:30:54.205Z,99.83
2022-11-29T06:41:02.225Z,98.37
2022-11-29T06:51:14.325Z,103.90
2022-11-29T07:01:27.687Z,112.67
2022-11-29T07:11:33.869Z,101.67
2022-11-29T07:21:52.742Z,104.13
2022-11-29T07:32:09.418Z,95.60
2022-11-29T07:42:22.384Z,97.57
2022-11-29T07:52:27.353Z,87.73
2022-11-29T08:02:31.563Z,90.90
2022-11-29T08:12:36.682Z,84.87
2022-11-29T08:22:40.471Z,92.60
2022-11-29T08:32:51.117Z,99.50
2022-11-29T08:42:58.897Z,96.33
2022-11-29T08:53:21.025Z,96.10
2022-11-29T09:03:42.478Z,96.27
2022-11-29T09:13:51.358Z,101.53
2022-11-29T09:23:59.217Z,103.03
2022-11-29T09:34:04.676Z,102.00
2022-11-29T09:44:15.799Z,102.27
2022-11-29T09:54:32.709Z,98.03
2022-11-29T10:04:42.724Z,96.33
2022-11-29T10:14:55.906Z,95.83
2022-11-29T10:25:02.248Z,99.63
2022-11-29T10:35:15.243Z,104.60
2022-11-29T10:45:29.764Z,99.60
2022-11-29T10:55:41.884Z,95.77
2022-11-29T11:06:01.912Z,101.77
2022-11-29T11:16:17.370Z,100.77
2022-11-29T11:26:21.590Z,93.57
2022-11-29T11:36:28.543Z,95.13
2022-11-29T11:46:49.027Z,88.13
2022-11-29T11:56:54.161Z,98.13
2022-11-29T12:07:02.010Z,92.60
2022-11-29T12:17:20.256Z,88.97
2022-11-29T12:27:23.989Z,100.73
2022-11-29T12:37:37.049Z,92.73
2022-11-29T12:47:52.461Z,95.33
2022-11-29T12:58:07.901Z,87.83
2022-11-29T13:08:52.732Z,96.20
2022-11-29T13:19:06.404Z,104.23
2022-11-29T13:29:17.239Z,90.40
2022-11-29T13:39:39.684Z,92.33
2022-11-29T13:49:58.581Z,89.40
2022-11-29T14:00:03.997Z,87.33
2022-11-29T14:10:26.375Z,97.20
2022-11-29T14:20:59.171Z,88.87
2022-11-29T14:31:03.582Z,85.60
2022-11-29T14:41:24.521Z,85.77
2022-11-29T14:51:31.730Z,87.80
2022-11-29T15:01:38.233Z,87.60
2022-11-29T15:11:52.086Z,86.73
2022-11-29T15:22:09.942Z,86.03
2022-11-29T15:32:19.149Z,87.33
2022-11-29T15:42:25.310Z,93.00
2022-11-29T15:52:36.445Z,94.93
2022-11-29T16:02:48.449Z,96.80
2022-11-29T16:12:55.635Z,99.17
2022-11-29T16:23:15.367Z,96.83
2022-11-29T16:33:24.024Z,89.33
2022-11-29T16:43:58.918Z,90.77
2022-11-29T16:54:23.938Z,95.40
2022-11-29T17:04:28.734Z,89.13
2022-11-29T17:14:33.409Z,89.60
2022-11-29T17:24:44.945Z,94.83
2022-11-29T17:34:51.403Z,94.67
2022-11-29T17:44:56.324Z,93.67
2022-11-29T17:54:59.730Z,91.43
2022-11-29T18:05:05.229Z,88.73
2022-11-29T18:15:09.832Z,94.80
2022-11-29T18:25:37.657Z,88.97
2022-11-29T18:35:38.103Z,83.77
2022-11-29T18:45:43.037Z,91.43
2022-11-29T18:55:47.058Z,95.17
2022-11-29T19:05:55.178Z,90.50
2022-11-29T19:15:58.786Z,94.13
2022-11-29T19:26:08.377Z,94.20
2022-11-29T19:36:15.587Z,89.27
2022-11-29T19:46:22.844Z,93.20
2022-11-29T19:56:27.222Z,96.80
2022-11-29T20:06:32.746Z,100.60
2022-11-29T20:16:38.060Z,101.93
2022-11-29T20:26:45.636Z,105.60
2022-11-29T20:37:21.148Z,99.20
2022-11-29T20:47:28.806Z,98.70
2022-11-29T20:57:32.270Z,97.73
2022-11-29T21:07:37.982Z,102.50
2022-11-29T21:17:42.517Z,115.37
2022-11-29T21:27:48.373Z,102.47
2022-11-29T21:37:56.332Z,98.77
2022-11-29T21:48:02.567Z,108.37
2022-11-29T21:58:07.019Z,99.73
2022-11-29T22:08:11.884Z,97.67
2022-11-29T22:18:15.513Z,112.53
2022-11-29T22:28:20.359Z,102.10
2022-11-29T22:38:23.849Z,112.37
2022-11-29T22:48:28.609Z,105.03
2022-11-29T22:58:32.264Z,103.07
2022-11-29T23:08:38.702Z,103.17
2022-11-29T23:18:42.891Z,101.67
2022-11-29T23:28:50.178Z,99.37
2022-11-29T23:38:53.916Z,99.30
2022-11-29T23:48:58.936Z,105.93
2022-11-29T23:59:02.574Z,109.27
